Terminal Aerodrome Forecast
Issued by NWS

Home | Current Version | Previous Version | Text Only | Print | Product List | Glossary On
Versions: 1 2 3 4 5 6 7 8 9 10 11 12 13 14 15
000
FTUS44 KLIX 032348
TAFGPT
TAF
KGPT 032348Z 0400/0424 09014G24KT P6SM OVC040
      TEMPO 0403/0407 4SM -RA OVC025
     FM040700 10012G22KT P6SM OVC020
      TEMPO 0407/0408 4SM -RA OVC010
     FM040800 10011G21KT 6SM -RA OVC010
     FM041400 14009KT 2SM SHRA OVC010
     FM041700 17008KT 3SM SHRA OVC015=

USA.gov is the U.S. government's official web portal to all federal, state and local government web resources and services.